Time;durP1;ratioP1;P1;durP2;ratioP2;P2;SDS_P1;SDS_P2;PMS_P1;PMS_P2;Temp;Humidity;BMP_temperature;BMP_pressure;BME280_temperature;BME280_humidity;BME280_pressure;Samples;Min_cycle;Max_cycle;Signal;HPM_P1;HPM_P2
2023/03/15 00:05:21;;;;;;;;;;;;;;;;;;;;;
2023/03/15 00:08:14;;;;;;;;;;;2.60;95.00;;;;;;4743256;30;20475;-87
2023/03/15 00:14:30;;;;;;;;;;;;;;;;;;;;;
2023/03/15 00:17:10;;;;;;;;;;;2.40;95.50;;;;;;4734307;30;20004;-87
2023/03/15 00:20:00;;;;;;;;;;;2.40;95.60;;;;;;4682651;30;19923;-87
2023/03/15 00:22:44;;;;;;;;;;;2.50;95.60;;;;;;4715575;30;19949;-87
2023/03/15 00:25:43;;;;;;;;;;;2.50;95.70;;;;;;4725186;30;20296;-87
2023/03/15 00:28:42;;;;;;;;;;;;;;;;;;;;;
2023/03/15 00:31:23;;;;;;;;;;;2.50;95.60;;;;;;4780506;29;19929;-87
2023/03/15 00:38:55;;;;;;;;;;;2.50;95.70;;;;;;4754443;29;19975;-87
2023/03/15 00:42:07;;;;;;;;;;;2.50;95.90;;;;;;4743342;30;19933;-87
2023/03/15 00:48:39;;;;;;;;;;;;;;;;;;;;;
2023/03/15 01:00:11;;;;;;;;;;;2.50;96.00;;;;;;4734264;30;19921;-88
2023/03/15 01:03:04;;;;;;;;;;;2.50;96.10;;;;;;4733800;30;20485;-88
2023/03/15 01:06:16;;;;;;;;;;;2.50;96.10;;;;;;4698777;30;20455;-88
2023/03/15 01:10:00;;;;;;;;;;;2.60;96.00;;;;;;4733661;30;20021;-88
2023/03/15 01:17:04;;;;;;;;;;;2.70;96.00;;;;;;4771133;30;19983;-88
2023/03/15 01:23:20;;;;;;;;;;;2.60;96.20;;;;;;4751044;30;19993;-89
2023/03/15 01:26:58;;;;;;;;;;;2.60;96.20;;;;;;4744925;30;19983;-88
2023/03/15 01:37:58;;;;;;;;;;;2.70;96.40;;;;;;4733950;30;19986;-89
2023/03/15 02:12:59;;;;;;;;;;;2.90;96.60;;;;;;4723910;30;19934;-89
2023/03/15 02:16:03;;;;;;;;;;;;;;;;;;;;;
2023/03/15 02:19:25;;;;;;;;;;;;;;;;;;;;;
2023/03/15 02:25:38;;;;;;;;;;;3.00;96.80;;;;;;4808397;29;19960;-88
2023/03/15 02:28:37;;;;;;;;;;;3.00;96.80;;;;;;4792706;29;19986;-89
2023/03/15 02:32:08;;;;;;;;;;;2.90;96.90;;;;;;4798560;29;19972;-88
2023/03/15 02:35:20;;;;;;;;;;;2.80;97.00;;;;;;4751794;30;19961;-88
2023/03/15 02:38:33;;;;;;;;;;;2.80;97.10;;;;;;4728855;30;19927;-89
2023/03/15 02:50:16;;;;;;;;;;;2.50;97.40;;;;;;4732562;30;19983;-88
2023/03/15 02:53:51;;;;;;;;;;;2.50;97.30;;;;;;4716125;30;19927;-88
2023/03/15 03:03:51;;;;;;;;;;;2.40;97.40;;;;;;4750126;30;19924;-89
2023/03/15 03:06:38;;;;;;;;;;;2.30;97.40;;;;;;4777898;30;19935;-89
2023/03/15 03:09:51;;;;;;;;;;;2.30;97.50;;;;;;4771339;30;20382;-89
2023/03/15 03:12:23;;;;;;;;;;;2.30;97.50;;;;;;4760565;30;19925;-89
2023/03/15 03:19:09;;;;;;;;;;;2.30;97.50;;;;;;4772921;30;19920;-88
2023/03/15 03:21:56;;;;;;;;;;;2.30;97.50;;;;;;4773747;30;19970;-89
2023/03/15 03:24:55;;;;;;;;;;;2.30;97.50;;;;;;4790068;29;20408;-88
2023/03/15 03:31:51;;;;;;;;;;;2.30;97.50;;;;;;4790624;29;19929;-88
2023/03/15 03:50:24;;;;;;;;;;;2.10;97.40;;;;;;4786093;29;20020;-88
2023/03/15 03:53:03;;;;;;;;;;;2.10;97.50;;;;;;4771768;30;19983;-88
2023/03/15 03:55:53;;;;;;;;;;;2.10;97.50;;;;;;4789124;29;19926;-88
2023/03/15 04:10:27;;;;;;;;;;;2.00;97.60;;;;;;4771972;30;20055;-86
2023/03/15 04:13:23;;;;;;;;;;;2.00;97.50;;;;;;4813699;29;19929;-86
2023/03/15 04:16:23;;;;;;;;;;;2.00;97.50;;;;;;4796475;29;19925;-85
2023/03/15 04:23:28;;;;;;;;;;;2.00;97.50;;;;;;4802924;29;19914;-85
2023/03/15 04:26:10;;;;;;;;;;;1.90;97.50;;;;;;4803700;29;19933;-84
2023/03/15 04:28:51;;;;;;;;;;;1.90;97.60;;;;;;4792958;29;20362;-85
2023/03/15 04:31:42;;;;;;;;;;;1.90;97.60;;;;;;4781033;29;19948;-85
2023/03/15 04:34:28;;;;;;;;;;;1.90;97.60;;;;;;4793387;29;20354;-85
2023/03/15 04:37:34;;;;;;;;;;;1.90;97.60;;;;;;4778150;30;20004;-84
2023/03/15 04:40:22;;;;;;;;;;;2.00;97.60;;;;;;4783571;29;20013;-85
2023/03/15 04:43:32;;;;;;;;;;;2.00;97.50;;;;;;4790793;29;20008;-85
2023/03/15 04:46:16;;;;;;;;;;;2.00;97.50;;;;;;4800872;29;19996;-85
2023/03/15 04:49:37;;;;;;;;;;;2.00;97.50;;;;;;4798218;29;19925;-84
2023/03/15 04:52:41;;;;;;;;;;;2.10;97.50;;;;;;4805899;29;19924;-84
2023/03/15 04:55:41;;;;;;;;;;;2.10;97.40;;;;;;4794381;29;20026;-85
2023/03/15 04:58:17;;;;;;;;;;;2.00;97.40;;;;;;4792131;29;20028;-84
2023/03/15 05:01:09;;;;;;;;;;;2.00;97.40;;;;;;4775452;30;19936;-84
2023/03/15 05:04:15;;;;;;;;;;;2.00;97.40;;;;;;4790029;29;19929;-84
2023/03/15 05:07:08;;;;;;;;;;;2.00;97.50;;;;;;4782922;29;19931;-84
2023/03/15 05:10:05;;;;;;;;;;;1.90;97.50;;;;;;4790831;29;20285;-84
2023/03/15 05:12:45;;;;;;;;;;;1.90;97.50;;;;;;4792138;29;19929;-84
2023/03/15 05:15:41;;;;;;;;;;;1.90;97.50;;;;;;4793931;29;20295;-84
2023/03/15 05:18:36;;;;;;;;;;;1.90;97.50;;;;;;4776162;30;19925;-84
2023/03/15 05:21:33;;;;;;;;;;;1.90;97.50;;;;;;4773533;29;19937;-84
2023/03/15 05:27:24;;;;;;;;;;;1.90;97.50;;;;;;4808751;29;19977;-84
2023/03/15 05:30:10;;;;;;;;;;;1.90;97.50;;;;;;4822957;29;19925;-84
2023/03/15 05:33:03;;;;;;;;;;;1.80;97.50;;;;;;4809284;29;19925;-84
2023/03/15 05:35:54;;;;;;;;;;;1.80;97.50;;;;;;4796026;29;19929;-85
2023/03/15 05:38:38;;;;;;;;;;;1.80;97.60;;;;;;4781568;29;19925;-85
2023/03/15 05:41:31;;;;;;;;;;;1.70;97.50;;;;;;4793936;29;19931;-85
2023/03/15 05:44:39;;;;;;;;;;;1.70;97.60;;;;;;4799840;29;19925;-85
2023/03/15 05:47:49;;;;;;;;;;;1.70;97.60;;;;;;4808178;29;19925;-84
2023/03/15 05:58:32;;;;;;;;;;;1.60;97.50;;;;;;4810334;29;19925;-89
2023/03/15 06:01:07;;;;;;;;;;;1.60;97.50;;;;;;4778591;29;20415;-89
2023/03/15 06:04:02;;;;;;;;;;;1.60;97.50;;;;;;4797310;29;19925;-89
2023/03/15 06:07:07;;;;;;;;;;;1.60;97.50;;;;;;4785192;29;19925;-90
2023/03/15 06:10:13;;;;;;;;;;;1.60;97.50;;;;;;4796153;29;19925;-90
2023/03/15 06:13:10;;;;;;;;;;;1.60;97.60;;;;;;4810012;29;19925;-89
2023/03/15 06:15:51;;;;;;;;;;;1.60;97.60;;;;;;4800668;29;19985;-90
2023/03/15 06:18:40;;;;;;;;;;;1.60;97.50;;;;;;4796163;29;19921;-89
2023/03/15 06:21:21;;;;;;;;;;;1.60;97.50;;;;;;4798053;29;19925;-90
2023/03/15 06:23:51;;;;;;;;;;;1.60;97.50;;;;;;4801739;29;19925;-89
2023/03/15 06:26:48;;;;;;;;;;;1.70;97.50;;;;;;4789861;29;19929;-90
2023/03/15 06:29:26;;;;;;;;;;;;;;;;;;;;;
2023/03/15 06:32:01;;;;;;;;;;;1.70;97.50;;;;;;4811539;29;19925;-89
2023/03/15 06:34:35;;;;;;;;;;;1.70;97.50;;;;;;4795472;29;19966;-89
2023/03/15 06:37:07;;;;;;;;;;;1.80;97.50;;;;;;4789935;29;19925;-89
2023/03/15 06:39:37;;;;;;;;;;;1.90;97.50;;;;;;4788888;29;19935;-89
2023/03/15 06:42:14;;;;;;;;;;;2.00;97.60;;;;;;4805110;29;19925;-89
2023/03/15 06:44:58;;;;;;;;;;;2.10;97.20;;;;;;4799445;29;19974;-90
2023/03/15 06:47:31;;;;;;;;;;;2.20;97.10;;;;;;4812041;29;19913;-89
2023/03/15 06:50:08;;;;;;;;;;;2.20;97.00;;;;;;4810050;29;19925;-89
2023/03/15 06:52:47;;;;;;;;;;;2.20;97.00;;;;;;4772398;29;19929;-88
2023/03/15 06:55:26;;;;;;;;;;;2.20;97.00;;;;;;4794799;29;20020;-89
2023/03/15 06:58:28;;;;;;;;;;;2.20;97.00;;;;;;4805106;29;19921;-84
2023/03/15 07:00:55;;;;;;;;;;;2.20;97.10;;;;;;4797357;29;19957;-83
2023/03/15 07:03:26;;;;;;;;;;;2.20;97.10;;;;;;4804483;29;19929;-86
2023/03/15 07:05:56;;;;;;;;;;;2.20;97.10;;;;;;4796113;29;20390;-89
2023/03/15 07:08:25;;;;;;;;;;;2.20;97.10;;;;;;4793684;29;19974;-85
2023/03/15 07:11:05;;;;;;;;;;;2.30;97.10;;;;;;4805446;29;19925;-86
2023/03/15 07:13:38;;;;;;;;;;;2.30;97.00;;;;;;4807074;29;19968;-85
2023/03/15 07:16:07;;;;;;;;;;;2.40;97.00;;;;;;4812256;29;19924;-87
2023/03/15 07:18:37;;;;;;;;;;;2.40;96.90;;;;;;4796919;29;19925;-89
2023/03/15 07:21:07;;;;;;;;;;;2.50;96.90;;;;;;4806870;29;19932;-89
2023/03/15 07:23:43;;;;;;;;;;;2.60;96.80;;;;;;4824878;29;20782;-91
2023/03/15 07:26:37;;;;;;;;;;;2.60;96.70;;;;;;4811799;29;19932;-91
2023/03/15 07:29:18;;;;;;;;;;;2.70;96.70;;;;;;4815988;29;19997;-88
2023/03/15 07:31:59;;;;;;;;;;;2.70;96.70;;;;;;4798854;29;20366;-88
2023/03/15 07:34:46;;;;;;;;;;;2.80;96.70;;;;;;4816798;29;20019;-87
2023/03/15 07:37:18;;;;;;;;;;;2.80;96.70;;;;;;4821887;29;19925;-87
2023/03/15 07:51:54;;;;;;;;;;;3.00;96.60;;;;;;4789942;30;20036;-91
2023/03/15 07:55:19;;;;;;;;;;;3.10;96.50;;;;;;4740338;30;19937;-90
2023/03/15 08:02:00;;;;;;;;;;;3.20;96.50;;;;;;4728999;30;20431;-91
2023/03/15 08:05:09;;;;;;;;;;;3.20;96.50;;;;;;4727990;30;19933;-87
2023/03/15 08:07:48;;;;;;;;;;;3.30;96.50;;;;;;4735426;30;19926;-90
2023/03/15 08:10:40;;;;;;;;;;;3.40;96.50;;;;;;4734776;30;19931;-88
2023/03/15 08:13:18;;;;;;;;;;;3.50;96.50;;;;;;4761215;30;19934;-90
2023/03/15 08:29:06;;;;;;;;;;;3.80;96.20;;;;;;4736879;30;19964;-91
2023/03/15 08:31:38;;;;;;;;;;;3.90;96.20;;;;;;4729746;30;19926;-92
2023/03/15 08:34:27;;;;;;;;;;;3.90;96.20;;;;;;4753329;30;19926;-90
2023/03/15 08:37:25;;;;;;;;;;;3.90;96.20;;;;;;4775101;30;19982;-92
2023/03/15 08:40:08;;;;;;;;;;;4.00;96.20;;;;;;4774271;30;20290;-91
2023/03/15 08:42:40;;;;;;;;;;;4.00;96.20;;;;;;4756992;30;19926;-91
2023/03/15 08:45:14;;;;;;;;;;;4.10;96.20;;;;;;4770934;30;19930;-89
2023/03/15 08:47:51;;;;;;;;;;;4.10;96.20;;;;;;4745743;30;19926;-89
2023/03/15 08:50:39;;;;;;;;;;;4.20;96.20;;;;;;4779664;29;19932;-89
2023/03/15 08:53:37;;;;;;;;;;;4.30;96.20;;;;;;4788112;29;19925;-89
2023/03/15 08:56:10;;;;;;;;;;;4.30;96.10;;;;;;4744744;30;19925;-89
2023/03/15 08:58:56;;;;;;;;;;;4.30;96.10;;;;;;4791175;29;19975;-88
2023/03/15 09:02:41;;;;;;;;;;;4.40;96.10;;;;;;4791348;29;19929;-86
2023/03/15 09:09:23;;;;;;;;;;;4.50;96.00;;;;;;4808064;29;19920;-90
2023/03/15 09:12:36;;;;;;;;;;;4.50;95.80;;;;;;4795085;29;20400;-89
2023/03/15 09:23:45;;;;;;;;;;;4.60;95.60;;;;;;4807005;29;19996;-91
2023/03/15 09:26:25;;;;;;;;;;;4.60;95.60;;;;;;4795490;29;19974;-91
2023/03/15 09:29:15;;;;;;;;;;;4.60;95.70;;;;;;4827898;29;19931;-91
2023/03/15 09:32:24;;;;;;;;;;;4.70;95.50;;;;;;4809980;29;19925;-91
2023/03/15 09:34:58;;;;;;;;;;;4.80;95.40;;;;;;4779697;29;19931;-88
2023/03/15 09:37:28;;;;;;;;;;;4.80;95.50;;;;;;4791383;29;19925;-87
2023/03/15 09:40:06;;;;;;;;;;;4.90;95.50;;;;;;4791795;29;19965;-90
2023/03/15 09:43:00;;;;;;;;;;;5.00;95.30;;;;;;4791876;29;19926;-91
2023/03/15 09:45:48;;;;;;;;;;;5.10;95.20;;;;;;4777884;29;20045;-88
2023/03/15 09:48:30;;;;;;;;;;;5.20;94.70;;;;;;4791629;29;19963;-90
2023/03/15 09:51:01;;;;;;;;;;;5.30;94.40;;;;;;4780865;29;19929;-89
2023/03/15 09:53:38;;;;;;;;;;;5.40;94.40;;;;;;4806491;29;19932;-87
2023/03/15 09:56:26;;;;;;;;;;;5.30;94.30;;;;;;4790653;29;19925;-87
2023/03/15 09:58:56;;;;;;;;;;;5.40;94.00;;;;;;4793591;29;19924;-87
2023/03/15 10:01:35;;;;;;;;;;;5.40;93.50;;;;;;4809684;29;20404;-89
2023/03/15 10:04:17;;;;;;;;;;;5.40;93.60;;;;;;4805497;29;19929;-87
2023/03/15 10:06:50;;;;;;;;;;;5.50;93.70;;;;;;4791064;29;19925;-88
2023/03/15 10:13:35;;;;;;;;;;;5.50;93.40;;;;;;4776305;30;19932;-93
2023/03/15 10:16:38;;;;;;;;;;;5.50;93.30;;;;;;4792324;29;19944;-87
2023/03/15 10:19:24;;;;;;;;;;;5.60;93.30;;;;;;4791053;29;19933;-87
2023/03/15 10:21:55;;;;;;;;;;;5.70;93.20;;;;;;4796704;29;19968;-87
2023/03/15 10:24:38;;;;;;;;;;;5.80;92.80;;;;;;4793747;29;20297;-87
2023/03/15 10:27:13;;;;;;;;;;;5.80;92.70;;;;;;4776310;30;19925;-87
2023/03/15 10:29:43;;;;;;;;;;;5.90;92.40;;;;;;4790100;29;19929;-86
2023/03/15 10:32:16;;;;;;;;;;;5.90;92.40;;;;;;4791806;30;19930;-85
2023/03/15 10:34:48;;;;;;;;;;;5.90;92.00;;;;;;4797561;29;19925;-86
2023/03/15 10:37:18;;;;;;;;;;;5.90;91.70;;;;;;4794003;29;20366;-87
2023/03/15 10:39:46;;;;;;;;;;;5.90;91.70;;;;;;4793567;29;19999;-88
2023/03/15 10:42:26;;;;;;;;;;;5.90;91.50;;;;;;4793103;29;19924;-87
2023/03/15 10:45:11;;;;;;;;;;;5.90;91.50;;;;;;4794173;29;19929;-87
2023/03/15 10:47:43;;;;;;;;;;;6.00;91.90;;;;;;4793621;29;20036;-87
2023/03/15 10:50:30;;;;;;;;;;;6.10;91.30;;;;;;4797262;29;19928;-86
2023/03/15 10:53:07;;;;;;;;;;;6.20;91.20;;;;;;4794589;29;19936;-86
2023/03/15 10:55:35;;;;;;;;;;;6.20;91.00;;;;;;4793178;29;19925;-86
2023/03/15 10:58:22;;;;;;;;;;;6.30;91.20;;;;;;4808234;29;19980;-86
2023/03/15 11:01:02;;;;;;;;;;;6.30;90.70;;;;;;4792985;29;19925;-86
2023/03/15 11:03:30;;;;;;;;;;;6.40;90.50;;;;;;4793116;29;19969;-86
2023/03/15 11:05:57;;;;;;;;;;;6.30;90.70;;;;;;4792759;29;19933;-86
2023/03/15 11:08:36;;;;;;;;;;;6.30;90.60;;;;;;4793102;29;19925;-86
2023/03/15 11:11:07;;;;;;;;;;;6.40;90.30;;;;;;4793219;29;20366;-85
2023/03/15 11:13:35;;;;;;;;;;;6.40;89.20;;;;;;4792402;29;19925;-86
2023/03/15 11:16:03;;;;;;;;;;;6.40;89.70;;;;;;4792499;29;20008;-85
2023/03/15 11:18:32;;;;;;;;;;;6.40;89.40;;;;;;4792536;29;19933;-86
2023/03/15 11:21:02;;;;;;;;;;;6.40;88.50;;;;;;4792277;29;19954;-85
2023/03/15 11:23:32;;;;;;;;;;;6.40;87.60;;;;;;4792273;29;19982;-85
2023/03/15 11:26:08;;;;;;;;;;;6.40;86.00;;;;;;4792266;29;19933;-87
2023/03/15 11:28:42;;;;;;;;;;;6.40;85.60;;;;;;4792748;29;19925;-87
2023/03/15 11:31:09;;;;;;;;;;;6.40;86.60;;;;;;4792512;29;19929;-87
2023/03/15 11:33:47;;;;;;;;;;;6.40;87.10;;;;;;4792894;29;19925;-87
2023/03/15 11:36:19;;;;;;;;;;;6.40;87.40;;;;;;4793204;29;20011;-87
2023/03/15 11:38:47;;;;;;;;;;;6.40;86.50;;;;;;4792392;29;19925;-87
2023/03/15 11:41:29;;;;;;;;;;;6.50;85.80;;;;;;4792186;29;19929;-87
2023/03/15 11:44:13;;;;;;;;;;;6.60;85.90;;;;;;4791855;29;19925;-87
2023/03/15 11:46:40;;;;;;;;;;;6.70;84.60;;;;;;4792405;29;20197;-88
2023/03/15 11:49:27;;;;;;;;;;;6.60;84.40;;;;;;4792408;29;20393;-87
2023/03/15 11:51:55;;;;;;;;;;;6.60;83.70;;;;;;4792020;29;20351;-85
2023/03/15 11:54:24;;;;;;;;;;;6.70;84.30;;;;;;4792090;29;20022;-86
2023/03/15 11:56:55;;;;;;;;;;;6.70;82.80;;;;;;4791868;29;19979;-85
2023/03/15 11:59:28;;;;;;;;;;;6.70;83.50;;;;;;4791608;29;20360;-85
2023/03/15 12:02:05;;;;;;;;;;;6.80;83.80;;;;;;4804366;29;19925;-86
2023/03/15 12:04:37;;;;;;;;;;;6.90;82.60;;;;;;4792023;29;19924;-87
2023/03/15 12:07:23;;;;;;;;;;;6.90;82.20;;;;;;4791704;29;19937;-86
2023/03/15 12:10:02;;;;;;;;;;;6.90;82.70;;;;;;4792031;29;19981;-86
2023/03/15 12:12:30;;;;;;;;;;;7.00;82.40;;;;;;4791747;29;20012;-87
2023/03/15 12:15:19;;;;;;;;;;;7.00;81.10;;;;;;4791719;29;19960;-86
2023/03/15 12:17:58;;;;;;;;;;;7.00;79.70;;;;;;4791385;29;19925;-87
2023/03/15 12:20:35;;;;;;;;;;;7.10;78.40;;;;;;4777157;29;19932;-86
2023/03/15 12:23:08;;;;;;;;;;;7.10;78.30;;;;;;4791433;29;19925;-86
2023/03/15 12:25:36;;;;;;;;;;;7.10;77.00;;;;;;4791298;29;20324;-85
2023/03/15 12:28:22;;;;;;;;;;;7.10;77.50;;;;;;4791065;29;19924;-86
2023/03/15 12:30:57;;;;;;;;;;;7.10;78.00;;;;;;4791231;29;19925;-83
2023/03/15 12:33:27;;;;;;;;;;;7.10;77.30;;;;;;4775557;29;19925;-83
2023/03/15 12:36:00;;;;;;;;;;;7.20;75.10;;;;;;4797117;29;19932;-83
2023/03/15 12:38:37;;;;;;;;;;;7.20;76.00;;;;;;4805502;29;19947;-83
2023/03/15 12:41:26;;;;;;;;;;;7.20;74.90;;;;;;4790776;29;19931;-84
2023/03/15 12:44:13;;;;;;;;;;;7.20;74.90;;;;;;4790950;29;19925;-86
2023/03/15 12:46:40;;;;;;;;;;;7.20;75.20;;;;;;4791058;29;20375;-87
2023/03/15 12:49:11;;;;;;;;;;;7.20;76.30;;;;;;4806328;29;19925;-87
2023/03/15 12:51:43;;;;;;;;;;;7.30;75.60;;;;;;4791656;29;20043;-86
2023/03/15 12:54:13;;;;;;;;;;;7.40;75.90;;;;;;4798726;29;20028;-87
2023/03/15 12:56:42;;;;;;;;;;;7.40;75.70;;;;;;4793145;29;19925;-86
2023/03/15 12:59:14;;;;;;;;;;;7.50;74.80;;;;;;4791649;29;19925;-90
2023/03/15 13:01:44;;;;;;;;;;;7.50;74.10;;;;;;4791569;29;19929;-90
2023/03/15 13:04:13;;;;;;;;;;;7.50;74.40;;;;;;4791309;29;19971;-90
2023/03/15 13:06:40;;;;;;;;;;;7.50;73.50;;;;;;4791624;29;20019;-91
2023/03/15 13:09:10;;;;;;;;;;;7.50;72.20;;;;;;4791529;29;19925;-87
2023/03/15 13:12:01;;;;;;;;;;;7.50;72.20;;;;;;4791923;29;20370;-93
2023/03/15 13:14:41;;;;;;;;;;;7.50;72.40;;;;;;4789508;29;19925;-89
2023/03/15 13:17:57;;;;;;;;;;;;;;;;;;;;;
2023/03/15 13:20:51;;;;;;;;;;;7.60;73.70;;;;;;4772987;30;19933;-91
2023/03/15 13:23:28;;;;;;;;;;;7.60;72.40;;;;;;4792200;29;19929;-92
2023/03/15 13:26:08;;;;;;;;;;;7.70;71.50;;;;;;4792093;29;19925;-93
2023/03/15 13:28:38;;;;;;;;;;;7.70;71.80;;;;;;4791560;29;19925;-88
2023/03/15 13:31:31;;;;;;;;;;;7.70;72.00;;;;;;4794241;29;19929;-92
2023/03/15 13:37:45;;;;;;;;;;;7.80;71.40;;;;;;4805942;29;20023;-86
2023/03/15 13:40:14;;;;;;;;;;;7.90;70.40;;;;;;4803691;29;19929;-88
2023/03/15 13:42:47;;;;;;;;;;;7.90;70.00;;;;;;4792365;29;19932;-90
2023/03/15 13:45:15;;;;;;;;;;;8.00;69.80;;;;;;4778234;29;19925;-93
2023/03/15 13:47:45;;;;;;;;;;;8.10;70.30;;;;;;4795450;29;19931;-90
2023/03/15 13:50:20;;;;;;;;;;;8.20;69.30;;;;;;4795058;29;19925;-91
2023/03/15 13:52:47;;;;;;;;;;;8.30;70.00;;;;;;4795199;29;19925;-93
2023/03/15 13:55:18;;;;;;;;;;;8.30;67.70;;;;;;4795726;29;19925;-92
2023/03/15 13:57:48;;;;;;;;;;;8.30;66.60;;;;;;4794746;29;19925;-90
2023/03/15 14:00:17;;;;;;;;;;;8.30;66.60;;;;;;4795028;29;19925;-92
2023/03/15 14:02:54;;;;;;;;;;;8.30;66.00;;;;;;4794971;29;20287;-91
2023/03/15 14:05:28;;;;;;;;;;;8.30;66.00;;;;;;4794539;29;19959;-92
2023/03/15 14:07:58;;;;;;;;;;;8.30;66.90;;;;;;4794838;29;19925;-91
2023/03/15 14:10:27;;;;;;;;;;;8.40;67.90;;;;;;4779749;29;20036;-91
2023/03/15 14:12:54;;;;;;;;;;;8.40;68.50;;;;;;4776200;30;19925;-89
2023/03/15 14:15:33;;;;;;;;;;;8.40;67.20;;;;;;4784044;29;20012;-90
2023/03/15 14:18:02;;;;;;;;;;;8.50;67.00;;;;;;4794365;29;19925;-89
2023/03/15 14:25:02;;;;;;;;;;;8.60;65.80;;;;;;4809367;29;19924;-84
2023/03/15 14:27:30;;;;;;;;;;;8.60;66.80;;;;;;4778216;29;20397;-88
2023/03/15 14:30:17;;;;;;;;;;;8.60;66.30;;;;;;4794323;29;19925;-85
2023/03/15 14:32:55;;;;;;;;;;;8.70;66.50;;;;;;4807925;29;19925;-87
2023/03/15 14:35:23;;;;;;;;;;;8.70;65.60;;;;;;4793268;29;20020;-85
2023/03/15 14:38:00;;;;;;;;;;;8.70;66.20;;;;;;4792499;29;20306;-84
2023/03/15 14:40:33;;;;;;;;;;;8.80;65.50;;;;;;4807671;29;20432;-87
2023/03/15 14:43:04;;;;;;;;;;;8.80;65.70;;;;;;4792741;29;19925;-87
2023/03/15 14:45:32;;;;;;;;;;;8.90;65.90;;;;;;4792868;29;19932;-88
2023/03/15 14:48:35;;;;;;;;;;;8.90;66.60;;;;;;4796199;29;19929;-89
2023/03/15 14:51:35;;;;;;;;;;;8.90;66.60;;;;;;4785969;29;19978;-92
2023/03/15 15:07:05;;;;;;;;;;;;;;;;;;;;;
2023/03/15 15:10:21;;;;;;;1.85;0.20;;;9.60;62.60;;;;;;6190398;23;20096;-91
2023/03/15 15:13:53;;;;;;;2.88;0.30;;;9.40;63.70;;;;;;6079831;23;20018;-91
2023/03/15 15:17:40;;;;;;;;;;;;;;;;;;;;;
2023/03/15 15:20:56;;;;;;;2.05;0.30;;;9.10;62.00;;;;;;6087045;23;20018;-90
2023/03/15 15:23:58;;;;;;;2.03;0.40;;;9.10;62.50;;;;;;5972961;24;20028;-93
2023/03/15 15:26:30;;;;;;;2.40;0.20;;;9.00;62.20;;;;;;5989142;24;20024;-89
2023/03/15 15:29:07;;;;;;;2.03;0.20;;;9.00;62.30;;;;;;5989994;24;20028;-94
2023/03/15 15:31:38;;;;;;;2.08;0.20;;;8.90;62.50;;;;;;5944475;24;20024;-93
2023/03/15 15:34:07;;;;;;;2.83;0.30;;;8.90;62.90;;;;;;5967962;24;20103;-93
2023/03/15 15:36:42;;;;;;;2.10;0.30;;;8.90;62.30;;;;;;5977238;23;20020;-89
2023/03/15 15:39:26;;;;;;;1.95;0.20;;;8.90;62.50;;;;;;6099391;23;20022;-91
2023/03/15 15:47:02;;;;;;;3.15;0.45;;;8.80;62.70;;;;;;6133953;23;20044;-89
2023/03/15 15:49:56;;;;;;;0.80;0.30;;;8.80;62.60;;;;;;6132777;23;20022;-90
2023/03/15 15:53:12;;;;;;;1.58;0.30;;;8.70;63.10;;;;;;6056338;23;20113;-89
2023/03/15 15:59:58;;;;;;;0.85;0.10;;;8.70;63.90;;;;;;5985669;23;20059;-86
2023/03/15 16:02:25;;;;;;;0.43;0.10;;;8.70;64.20;;;;;;6016508;23;20024;-85
2023/03/15 16:04:53;;;;;;;2.60;0.52;;;8.70;64.40;;;;;;5997466;23;20031;-83
2023/03/15 16:07:23;;;;;;;1.88;0.20;;;8.70;63.70;;;;;;5990915;23;20023;-87
2023/03/15 16:09:56;;;;;;;1.15;0.20;;;8.70;63.70;;;;;;6037977;23;20029;-89
2023/03/15 16:12:24;;;;;;;0.85;0.10;;;8.80;64.00;;;;;;6076702;23;20027;-88
2023/03/15 16:14:51;;;;;;;1.50;0.20;;;8.80;64.30;;;;;;6076197;23;20056;-88
2023/03/15 16:17:21;;;;;;;1.67;0.10;;;8.80;64.40;;;;;;6076390;23;20014;-87
2023/03/15 16:19:49;;;;;;;0.90;0.10;;;8.80;64.20;;;;;;6099981;23;20058;-85
2023/03/15 16:22:19;;;;;;;0.28;0.03;;;8.70;64.50;;;;;;6100344;23;20021;-84
2023/03/15 16:24:51;;;;;;;0.75;0.20;;;8.70;64.90;;;;;;6100200;23;20026;-85
2023/03/15 16:27:22;;;;;;;0.98;0.10;;;8.60;64.70;;;;;;6076090;23;20029;-86
2023/03/15 16:29:52;;;;;;;0.10;0.10;;;8.60;65.00;;;;;;6100116;23;20026;-84
2023/03/15 16:32:21;;;;;;;1.75;0.52;;;8.60;65.20;;;;;;6075996;23;20025;-86
2023/03/15 16:35:14;;;;;;;0.25;0.03;;;8.60;65.50;;;;;;6113489;23;20024;-85
2023/03/15 16:37:42;;;;;;;1.67;0.15;;;8.50;65.80;;;;;;6219857;23;20099;-83
2023/03/15 16:40:38;;;;;;;1.55;0.10;;;8.50;66.00;;;;;;6195363;23;20044;-85
2023/03/15 16:43:07;;;;;;;2.60;0.75;;;8.40;66.20;;;;;;6192699;23;20016;-84
2023/03/15 16:45:34;;;;;;;1.05;0.55;;;8.30;67.10;;;;;;6194988;23;20024;-85
2023/03/15 16:48:04;;;;;;;0.20;0.10;;;8.30;66.20;;;;;;6220588;23;20034;-85
2023/03/15 16:50:33;;;;;;;2.05;0.20;;;8.20;66.50;;;;;;6170485;23;20353;-85
2023/03/15 16:53:04;;;;;;;0.43;0.08;;;8.20;66.40;;;;;;6195200;23;20028;-85
2023/03/15 16:55:32;;;;;;;0.20;0.10;;;8.10;66.80;;;;;;6220796;23;20016;-89
2023/03/15 16:58:04;;;;;;;0.35;0.10;;;8.00;66.90;;;;;;6196900;23;20490;-89
2023/03/15 17:00:31;;;;;;;0.50;0.10;;;8.00;66.90;;;;;;6195088;23;20103;-83
2023/03/15 17:02:58;;;;;;;0.55;0.10;;;7.90;67.00;;;;;;6195031;23;20039;-86
2023/03/15 17:05:26;;;;;;;2.60;0.20;;;7.80;67.20;;;;;;6170699;23;20078;-85
2023/03/15 17:07:54;;;;;;;0.20;0.10;;;7.70;67.10;;;;;;6219994;23;20016;-85
2023/03/15 17:10:30;;;;;;;1.10;0.15;;;7.60;67.40;;;;;;6194869;23;20070;-83
2023/03/15 17:13:01;;;;;;;0.10;0.10;;;7.50;67.60;;;;;;6170429;23;20028;-83
2023/03/15 17:15:31;;;;;;;0.10;0.00;;;7.40;67.70;;;;;;6220478;23;20016;-81
2023/03/15 17:17:59;;;;;;;0.17;0.00;;;7.40;68.00;;;;;;6219217;23;20023;-82
2023/03/15 17:20:30;;;;;;;0.32;0.00;;;7.20;68.20;;;;;;6195051;23;20020;-82
2023/03/15 17:23:02;;;;;;;0.20;0.00;;;7.20;68.20;;;;;;6194553;23;20446;-82
2023/03/15 17:25:31;;;;;;;0.10;0.00;;;7.10;68.40;;;;;;6194713;23;20031;-82
2023/03/15 17:27:59;;;;;;;0.22;0.00;;;7.00;68.70;;;;;;6194843;23;20504;-86
2023/03/15 17:30:31;;;;;;;1.42;0.10;;;6.90;68.90;;;;;;6171408;23;20024;-83
2023/03/15 17:32:59;;;;;;;0.10;0.00;;;6.80;69.10;;;;;;6194720;23;20426;-84
2023/03/15 17:35:41;;;;;;;0.30;0.10;;;6.70;69.30;;;;;;6170626;23;20020;-85
2023/03/15 17:38:22;;;;;;;;;;;6.60;69.60;;;;;;6194809;23;20020;-85
2023/03/15 17:40:50;;;;;;;0.63;0.10;;;6.40;70.00;;;;;;6219060;23;19919;-84
2023/03/15 17:43:17;;;;;;;0.30;0.10;;;6.30;70.60;;;;;;6194389;23;20020;-84
2023/03/15 17:45:45;;;;;;;0.40;0.10;;;6.30;70.70;;;;;;6194154;23;20019;-84
2023/03/15 17:48:12;;;;;;;0.50;0.10;;;6.20;70.90;;;;;;6194346;23;20024;-84
2023/03/15 17:50:42;;;;;;;1.25;0.30;;;6.20;71.10;;;;;;6219467;23;20450;-84
2023/03/15 17:53:18;;;;;;;0.43;0.00;;;6.10;71.30;;;;;;6194428;23;20024;-84
2023/03/15 17:55:52;;;;;;;0.98;0.10;;;6.10;71.50;;;;;;6195881;23;20059;-93
2023/03/15 17:58:25;;;;;;;0.52;0.10;;;6.00;71.70;;;;;;6198414;23;20389;-93
2023/03/15 18:00:53;;;;;;;0.30;0.10;;;6.00;71.90;;;;;;6196293;23;20110;-92
2023/03/15 18:03:24;;;;;;;0.38;0.10;;;5.90;72.10;;;;;;6196920;23;20042;-92
2023/03/15 18:05:52;;;;;;;0.47;0.10;;;5.90;72.40;;;;;;6221028;23;20099;-92
2023/03/15 18:08:25;;;;;;;0.20;0.05;;;5.80;72.60;;;;;;6225024;22;20034;-94
2023/03/15 18:10:56;;;;;;;0.30;0.10;;;5.80;72.90;;;;;;6202438;22;20430;-93
2023/03/15 18:13:26;;;;;;;0.85;0.10;;;5.70;73.10;;;;;;6225148;22;20019;-87
2023/03/15 18:15:54;;;;;;;1.13;0.10;;;5.70;73.30;;;;;;6224771;22;20019;-87
2023/03/15 18:18:21;;;;;;;1.20;0.10;;;5.60;73.40;;;;;;6224757;22;20349;-85
2023/03/15 18:20:49;;;;;;;1.23;0.20;;;5.60;73.60;;;;;;6225821;22;20043;-92
2023/03/15 18:23:20;;;;;;;1.27;0.15;;;5.60;73.80;;;;;;6226926;22;20027;-89
2023/03/15 18:25:56;;;;;;;0.30;0.08;;;5.50;73.90;;;;;;6227412;22;20028;-90
2023/03/15 18:28:34;;;;;;;1.38;0.10;;;5.50;74.10;;;;;;6225976;22;20019;-93
2023/03/15 18:31:18;;;;;;;0.33;0.10;;;5.50;74.30;;;;;;6229525;22;20026;-89
2023/03/15 18:34:25;;;;;;;0.57;0.10;;;5.50;74.40;;;;;;6225491;22;20020;-89
2023/03/15 18:37:04;;;;;;;0.40;0.10;;;5.40;74.60;;;;;;6228699;22;20102;-91
2023/03/15 18:39:42;;;;;;;0.55;0.20;;;5.40;74.80;;;;;;6250685;22;20073;-91
2023/03/15 18:42:16;;;;;;;0.20;0.10;;;5.40;75.00;;;;;;6201198;22;20028;-89
2023/03/15 18:44:46;;;;;;;0.93;0.22;;;5.40;75.10;;;;;;6201646;22;20020;-90
2023/03/15 18:47:16;;;;;;;1.55;0.28;;;5.30;75.20;;;;;;6234520;22;20079;-89
2023/03/15 18:49:44;;;;;;;0.57;0.20;;;5.30;75.40;;;;;;6214822;22;20097;-89
2023/03/15 18:52:21;;;;;;;1.17;0.30;;;5.30;75.50;;;;;;6253782;22;20032;-91
2023/03/15 18:54:58;;;;;;;0.95;0.28;;;5.30;75.60;;;;;;6253313;22;20016;-89
2023/03/15 18:57:26;;;;;;;0.47;0.10;;;5.30;75.80;;;;;;6229271;22;20019;-92
2023/03/15 18:59:55;;;;;;;0.85;0.20;;;5.30;76.50;;;;;;6228955;22;20023;-91
2023/03/15 19:02:25;;;;;;;2.60;0.30;;;5.30;76.10;;;;;;6232642;22;20081;-91
2023/03/15 19:05:12;;;;;;;0.93;0.20;;;5.30;76.10;;;;;;6229075;22;20020;-94
2023/03/15 19:08:11;;;;;;;1.15;0.30;;;5.30;76.20;;;;;;6208756;23;20107;-92
2023/03/15 19:10:41;;;;;;;1.25;0.10;;;5.30;76.30;;;;;;6175954;23;20047;-91
2023/03/15 19:13:08;;;;;;;0.95;0.20;;;5.20;76.50;;;;;;6198064;23;20346;-91
2023/03/15 19:15:36;;;;;;;0.90;0.22;;;5.30;76.60;;;;;;6199638;23;20022;-93